sensor_id;sensor_type;location;lat;lon;timestamp;P1;durP1;ratioP1;P2;durP2;ratioP2
73816;SDS011;62146;53.232;-1.304;2023-02-02T00:01:44;6.00;;;1.40;;
73816;SDS011;62146;53.232;-1.304;2023-02-02T00:04:16;6.10;;;1.70;;
73816;SDS011;62146;53.232;-1.304;2023-02-02T00:06:44;8.25;;;1.85;;
73816;SDS011;62146;53.232;-1.304;2023-02-02T00:09:13;9.15;;;2.30;;
73816;SDS011;62146;53.232;-1.304;2023-02-02T00:11:42;11.17;;;2.10;;
73816;SDS011;62146;53.232;-1.304;2023-02-02T00:14:09;6.55;;;1.88;;
73816;SDS011;62146;53.232;-1.304;2023-02-02T00:19:06;7.20;;;1.60;;
73816;SDS011;62146;53.232;-1.304;2023-02-02T00:21:35;7.82;;;1.90;;
73816;SDS011;62146;53.232;-1.304;2023-02-02T00:24:06;11.00;;;2.00;;
73816;SDS011;62146;53.232;-1.304;2023-02-02T00:26:34;7.93;;;2.00;;
73816;SDS011;62146;53.232;-1.304;2023-02-02T00:29:02;9.90;;;1.92;;
73816;SDS011;62146;53.232;-1.304;2023-02-02T00:31:30;6.53;;;1.63;;
73816;SDS011;62146;53.232;-1.304;2023-02-02T00:33:56;9.43;;;2.13;;
73816;SDS011;62146;53.232;-1.304;2023-02-02T00:36:23;9.33;;;1.87;;
73816;SDS011;62146;53.232;-1.304;2023-02-02T00:38:50;9.77;;;2.00;;
73816;SDS011;62146;53.232;-1.304;2023-02-02T00:41:18;11.20;;;1.85;;
73816;SDS011;62146;53.232;-1.304;2023-02-02T00:43:45;8.10;;;1.77;;
73816;SDS011;62146;53.232;-1.304;2023-02-02T00:46:31;5.15;;;1.60;;
73816;SDS011;62146;53.232;-1.304;2023-02-02T00:48:58;9.33;;;1.90;;
73816;SDS011;62146;53.232;-1.304;2023-02-02T00:51:24;12.63;;;1.98;;
73816;SDS011;62146;53.232;-1.304;2023-02-02T00:53:53;6.90;;;1.90;;
73816;SDS011;62146;53.232;-1.304;2023-02-02T00:56:19;10.48;;;2.03;;
73816;SDS011;62146;53.232;-1.304;2023-02-02T00:58:46;8.38;;;1.90;;
73816;SDS011;62146;53.232;-1.304;2023-02-02T01:01:16;8.07;;;1.70;;
73816;SDS011;62146;53.232;-1.304;2023-02-02T01:03:43;5.30;;;1.63;;
73816;SDS011;62146;53.232;-1.304;2023-02-02T01:06:10;10.38;;;2.10;;
73816;SDS011;62146;53.232;-1.304;2023-02-02T01:08:36;8.68;;;2.50;;
73816;SDS011;62146;53.232;-1.304;2023-02-02T01:11:04;10.43;;;2.33;;
73816;SDS011;62146;53.232;-1.304;2023-02-02T01:13:30;10.30;;;2.63;;
73816;SDS011;62146;53.232;-1.304;2023-02-02T01:15:58;9.25;;;2.20;;
73816;SDS011;62146;53.232;-1.304;2023-02-02T01:18:26;10.15;;;2.30;;
73816;SDS011;62146;53.232;-1.304;2023-02-02T01:20:57;8.02;;;2.40;;
73816;SDS011;62146;53.232;-1.304;2023-02-02T01:23:35;8.30;;;2.60;;
73816;SDS011;62146;53.232;-1.304;2023-02-02T01:26:04;9.33;;;2.37;;
73816;SDS011;62146;53.232;-1.304;2023-02-02T01:28:32;7.50;;;2.50;;
73816;SDS011;62146;53.232;-1.304;2023-02-02T01:31:03;7.53;;;2.47;;
73816;SDS011;62146;53.232;-1.304;2023-02-02T01:33:32;12.77;;;2.85;;
73816;SDS011;62146;53.232;-1.304;2023-02-02T01:36:01;10.27;;;2.65;;
73816;SDS011;62146;53.232;-1.304;2023-02-02T01:38:30;6.97;;;2.10;;
73816;SDS011;62146;53.232;-1.304;2023-02-02T01:40:57;6.13;;;2.22;;
73816;SDS011;62146;53.232;-1.304;2023-02-02T01:43:48;7.22;;;2.63;;
73816;SDS011;62146;53.232;-1.304;2023-02-02T01:46:28;7.60;;;2.13;;
73816;SDS011;62146;53.232;-1.304;2023-02-02T01:51:30;6.63;;;2.23;;
73816;SDS011;62146;53.232;-1.304;2023-02-02T01:54:01;7.88;;;2.47;;
73816;SDS011;62146;53.232;-1.304;2023-02-02T01:56:37;5.25;;;2.28;;
73816;SDS011;62146;53.232;-1.304;2023-02-02T01:59:09;12.65;;;2.58;;
73816;SDS011;62146;53.232;-1.304;2023-02-02T02:01:37;7.18;;;2.63;;
73816;SDS011;62146;53.232;-1.304;2023-02-02T02:04:04;6.80;;;2.20;;
73816;SDS011;62146;53.232;-1.304;2023-02-02T02:06:31;7.15;;;2.00;;
73816;SDS011;62146;53.232;-1.304;2023-02-02T02:08:59;5.90;;;2.22;;
73816;SDS011;62146;53.232;-1.304;2023-02-02T02:11:29;5.60;;;2.08;;
73816;SDS011;62146;53.232;-1.304;2023-02-02T02:13:57;7.03;;;2.20;;
73816;SDS011;62146;53.232;-1.304;2023-02-02T02:22:39;6.82;;;2.05;;
73816;SDS011;62146;53.232;-1.304;2023-02-02T02:28:35;6.35;;;2.00;;
73816;SDS011;62146;53.232;-1.304;2023-02-02T02:34:05;6.15;;;1.92;;
73816;SDS011;62146;53.232;-1.304;2023-02-02T02:36:49;7.63;;;2.10;;
73816;SDS011;62146;53.232;-1.304;2023-02-02T02:39:26;4.88;;;2.10;;
73816;SDS011;62146;53.232;-1.304;2023-02-02T02:42:01;6.80;;;2.20;;
73816;SDS011;62146;53.232;-1.304;2023-02-02T02:44:32;6.67;;;1.90;;
73816;SDS011;62146;53.232;-1.304;2023-02-02T02:47:01;7.55;;;2.13;;
73816;SDS011;62146;53.232;-1.304;2023-02-02T02:49:29;5.82;;;1.92;;
73816;SDS011;62146;53.232;-1.304;2023-02-02T02:51:55;5.78;;;2.00;;
73816;SDS011;62146;53.232;-1.304;2023-02-02T02:54:39;7.32;;;2.15;;
73816;SDS011;62146;53.232;-1.304;2023-02-02T03:00:12;5.18;;;1.90;;
73816;SDS011;62146;53.232;-1.304;2023-02-02T03:10:39;9.13;;;2.70;;
73816;SDS011;62146;53.232;-1.304;2023-02-02T03:13:10;6.85;;;2.10;;
73816;SDS011;62146;53.232;-1.304;2023-02-02T03:15:44;6.07;;;1.83;;
73816;SDS011;62146;53.232;-1.304;2023-02-02T03:18:11;7.18;;;2.30;;
73816;SDS011;62146;53.232;-1.304;2023-02-02T03:20:40;6.90;;;2.30;;
73816;SDS011;62146;53.232;-1.304;2023-02-02T03:23:09;7.67;;;2.07;;
73816;SDS011;62146;53.232;-1.304;2023-02-02T03:25:36;8.52;;;2.20;;
73816;SDS011;62146;53.232;-1.304;2023-02-02T03:28:03;5.50;;;1.98;;
73816;SDS011;62146;53.232;-1.304;2023-02-02T03:30:30;6.35;;;2.00;;
73816;SDS011;62146;53.232;-1.304;2023-02-02T03:32:57;6.05;;;2.10;;
73816;SDS011;62146;53.232;-1.304;2023-02-02T03:35:24;5.30;;;1.80;;
73816;SDS011;62146;53.232;-1.304;2023-02-02T03:37:51;5.10;;;2.00;;
73816;SDS011;62146;53.232;-1.304;2023-02-02T03:40:18;5.90;;;2.03;;
73816;SDS011;62146;53.232;-1.304;2023-02-02T03:42:44;5.30;;;1.80;;
73816;SDS011;62146;53.232;-1.304;2023-02-02T03:45:11;4.97;;;1.73;;
73816;SDS011;62146;53.232;-1.304;2023-02-02T03:47:38;5.47;;;1.90;;
73816;SDS011;62146;53.232;-1.304;2023-02-02T03:50:05;7.57;;;1.77;;
73816;SDS011;62146;53.232;-1.304;2023-02-02T03:52:34;4.75;;;1.90;;
73816;SDS011;62146;53.232;-1.304;2023-02-02T03:55:01;7.85;;;1.92;;
73816;SDS011;62146;53.232;-1.304;2023-02-02T03:57:29;7.35;;;1.98;;
73816;SDS011;62146;53.232;-1.304;2023-02-02T03:59:56;6.07;;;1.80;;
73816;SDS011;62146;53.232;-1.304;2023-02-02T04:02:23;5.10;;;1.77;;
73816;SDS011;62146;53.232;-1.304;2023-02-02T04:04:49;6.75;;;1.38;;
73816;SDS011;62146;53.232;-1.304;2023-02-02T04:07:16;3.97;;;1.50;;
73816;SDS011;62146;53.232;-1.304;2023-02-02T04:09:43;5.68;;;2.03;;
73816;SDS011;62146;53.232;-1.304;2023-02-02T04:12:09;6.40;;;1.53;;
73816;SDS011;62146;53.232;-1.304;2023-02-02T04:14:36;4.70;;;1.88;;
73816;SDS011;62146;53.232;-1.304;2023-02-02T04:17:02;7.93;;;1.50;;
73816;SDS011;62146;53.232;-1.304;2023-02-02T04:19:29;5.07;;;1.30;;
73816;SDS011;62146;53.232;-1.304;2023-02-02T04:21:55;6.95;;;1.90;;
73816;SDS011;62146;53.232;-1.304;2023-02-02T04:24:22;6.57;;;1.80;;
73816;SDS011;62146;53.232;-1.304;2023-02-02T04:26:48;5.90;;;1.60;;
73816;SDS011;62146;53.232;-1.304;2023-02-02T04:29:15;4.05;;;1.55;;
73816;SDS011;62146;53.232;-1.304;2023-02-02T04:31:42;7.68;;;1.48;;
73816;SDS011;62146;53.232;-1.304;2023-02-02T04:34:08;5.20;;;1.70;;
73816;SDS011;62146;53.232;-1.304;2023-02-02T04:36:35;5.97;;;1.40;;
73816;SDS011;62146;53.232;-1.304;2023-02-02T04:39:02;4.20;;;1.52;;
73816;SDS011;62146;53.232;-1.304;2023-02-02T04:41:28;5.50;;;1.70;;
73816;SDS011;62146;53.232;-1.304;2023-02-02T04:43:55;5.22;;;1.40;;
73816;SDS011;62146;53.232;-1.304;2023-02-02T04:46:21;4.75;;;1.33;;
73816;SDS011;62146;53.232;-1.304;2023-02-02T04:48:48;4.40;;;1.40;;
73816;SDS011;62146;53.232;-1.304;2023-02-02T04:51:15;3.42;;;1.00;;
73816;SDS011;62146;53.232;-1.304;2023-02-02T04:53:41;4.93;;;1.50;;
73816;SDS011;62146;53.232;-1.304;2023-02-02T04:56:10;5.32;;;1.20;;
73816;SDS011;62146;53.232;-1.304;2023-02-02T04:58:42;5.80;;;1.38;;
73816;SDS011;62146;53.232;-1.304;2023-02-02T05:01:16;6.83;;;1.30;;
73816;SDS011;62146;53.232;-1.304;2023-02-02T05:03:44;7.20;;;1.42;;
73816;SDS011;62146;53.232;-1.304;2023-02-02T05:06:12;6.45;;;1.40;;
73816;SDS011;62146;53.232;-1.304;2023-02-02T05:08:41;5.32;;;1.40;;
73816;SDS011;62146;53.232;-1.304;2023-02-02T05:11:12;7.43;;;1.50;;
73816;SDS011;62146;53.232;-1.304;2023-02-02T05:13:43;6.50;;;1.30;;
73816;SDS011;62146;53.232;-1.304;2023-02-02T05:16:17;7.75;;;1.50;;
73816;SDS011;62146;53.232;-1.304;2023-02-02T05:18:49;3.72;;;1.20;;
73816;SDS011;62146;53.232;-1.304;2023-02-02T05:21:17;4.32;;;1.33;;
73816;SDS011;62146;53.232;-1.304;2023-02-02T05:23:43;6.30;;;1.27;;
73816;SDS011;62146;53.232;-1.304;2023-02-02T05:26:15;8.50;;;1.60;;
73816;SDS011;62146;53.232;-1.304;2023-02-02T05:28:43;4.47;;;1.35;;
73816;SDS011;62146;53.232;-1.304;2023-02-02T05:31:10;4.93;;;1.67;;
73816;SDS011;62146;53.232;-1.304;2023-02-02T05:33:37;5.55;;;1.48;;
73816;SDS011;62146;53.232;-1.304;2023-02-02T05:36:04;6.20;;;1.50;;
73816;SDS011;62146;53.232;-1.304;2023-02-02T05:38:31;4.90;;;1.30;;
73816;SDS011;62146;53.232;-1.304;2023-02-02T05:40:58;5.88;;;1.35;;
73816;SDS011;62146;53.232;-1.304;2023-02-02T05:43:26;7.25;;;1.63;;
73816;SDS011;62146;53.232;-1.304;2023-02-02T05:45:53;7.03;;;1.90;;
73816;SDS011;62146;53.232;-1.304;2023-02-02T05:48:20;4.93;;;1.75;;
73816;SDS011;62146;53.232;-1.304;2023-02-02T05:50:53;5.13;;;1.47;;
73816;SDS011;62146;53.232;-1.304;2023-02-02T05:53:30;4.43;;;1.45;;
73816;SDS011;62146;53.232;-1.304;2023-02-02T05:55:58;6.38;;;1.70;;
73816;SDS011;62146;53.232;-1.304;2023-02-02T05:58:25;7.25;;;1.75;;
73816;SDS011;62146;53.232;-1.304;2023-02-02T06:00:54;6.65;;;2.00;;
73816;SDS011;62146;53.232;-1.304;2023-02-02T06:03:22;4.83;;;1.70;;
73816;SDS011;62146;53.232;-1.304;2023-02-02T06:05:49;4.18;;;1.73;;
73816;SDS011;62146;53.232;-1.304;2023-02-02T06:08:15;4.55;;;1.95;;
73816;SDS011;62146;53.232;-1.304;2023-02-02T06:10:42;5.78;;;1.95;;
73816;SDS011;62146;53.232;-1.304;2023-02-02T06:13:09;7.88;;;2.08;;
73816;SDS011;62146;53.232;-1.304;2023-02-02T06:15:36;7.07;;;2.07;;
73816;SDS011;62146;53.232;-1.304;2023-02-02T06:18:02;6.85;;;2.17;;
73816;SDS011;62146;53.232;-1.304;2023-02-02T06:20:31;5.45;;;1.90;;
73816;SDS011;62146;53.232;-1.304;2023-02-02T06:22:58;6.00;;;1.90;;
73816;SDS011;62146;53.232;-1.304;2023-02-02T06:25:25;5.65;;;1.90;;
73816;SDS011;62146;53.232;-1.304;2023-02-02T06:27:58;3.97;;;1.80;;
73816;SDS011;62146;53.232;-1.304;2023-02-02T06:30:26;7.20;;;1.98;;
73816;SDS011;62146;53.232;-1.304;2023-02-02T06:32:53;5.50;;;1.98;;
73816;SDS011;62146;53.232;-1.304;2023-02-02T06:35:19;5.03;;;1.67;;
73816;SDS011;62146;53.232;-1.304;2023-02-02T06:37:47;4.50;;;1.80;;
73816;SDS011;62146;53.232;-1.304;2023-02-02T06:40:14;4.60;;;1.57;;
73816;SDS011;62146;53.232;-1.304;2023-02-02T06:42:41;4.28;;;1.70;;
73816;SDS011;62146;53.232;-1.304;2023-02-02T06:45:07;5.07;;;1.80;;
73816;SDS011;62146;53.232;-1.304;2023-02-02T06:47:34;5.50;;;1.67;;
73816;SDS011;62146;53.232;-1.304;2023-02-02T06:50:01;4.07;;;1.40;;
73816;SDS011;62146;53.232;-1.304;2023-02-02T06:52:28;4.43;;;1.30;;
73816;SDS011;62146;53.232;-1.304;2023-02-02T06:54:55;4.70;;;1.65;;
73816;SDS011;62146;53.232;-1.304;2023-02-02T06:57:21;4.00;;;1.33;;
73816;SDS011;62146;53.232;-1.304;2023-02-02T06:59:48;5.75;;;1.63;;
73816;SDS011;62146;53.232;-1.304;2023-02-02T07:02:15;3.28;;;1.30;;
73816;SDS011;62146;53.232;-1.304;2023-02-02T07:04:42;3.73;;;1.37;;
73816;SDS011;62146;53.232;-1.304;2023-02-02T07:07:08;4.45;;;1.30;;
73816;SDS011;62146;53.232;-1.304;2023-02-02T07:09:35;5.78;;;1.60;;
73816;SDS011;62146;53.232;-1.304;2023-02-02T07:12:02;3.78;;;1.38;;
73816;SDS011;62146;53.232;-1.304;2023-02-02T07:14:28;3.53;;;1.40;;
73816;SDS011;62146;53.232;-1.304;2023-02-02T07:16:55;3.87;;;1.37;;
73816;SDS011;62146;53.232;-1.304;2023-02-02T07:19:21;3.78;;;1.13;;
73816;SDS011;62146;53.232;-1.304;2023-02-02T07:21:48;3.72;;;1.50;;
73816;SDS011;62146;53.232;-1.304;2023-02-02T07:24:15;4.97;;;1.38;;
73816;SDS011;62146;53.232;-1.304;2023-02-02T07:26:42;5.60;;;1.30;;
73816;SDS011;62146;53.232;-1.304;2023-02-02T07:29:11;5.23;;;1.40;;
73816;SDS011;62146;53.232;-1.304;2023-02-02T07:31:41;4.65;;;1.30;;
73816;SDS011;62146;53.232;-1.304;2023-02-02T07:34:08;4.10;;;1.40;;
73816;SDS011;62146;53.232;-1.304;2023-02-02T07:36:34;5.20;;;1.35;;
73816;SDS011;62146;53.232;-1.304;2023-02-02T07:39:01;5.03;;;1.20;;
73816;SDS011;62146;53.232;-1.304;2023-02-02T07:41:30;3.37;;;1.10;;
73816;SDS011;62146;53.232;-1.304;2023-02-02T07:43:58;4.55;;;1.10;;
73816;SDS011;62146;53.232;-1.304;2023-02-02T07:46:25;4.57;;;1.30;;
73816;SDS011;62146;53.232;-1.304;2023-02-02T07:48:52;3.53;;;1.00;;
73816;SDS011;62146;53.232;-1.304;2023-02-02T07:51:20;4.35;;;1.30;;
73816;SDS011;62146;53.232;-1.304;2023-02-02T07:53:48;2.77;;;1.10;;
73816;SDS011;62146;53.232;-1.304;2023-02-02T07:56:18;4.40;;;1.20;;
73816;SDS011;62146;53.232;-1.304;2023-02-02T07:58:46;2.83;;;1.10;;
73816;SDS011;62146;53.232;-1.304;2023-02-02T08:01:13;3.92;;;1.30;;
73816;SDS011;62146;53.232;-1.304;2023-02-02T08:03:42;5.05;;;1.30;;
73816;SDS011;62146;53.232;-1.304;2023-02-02T08:08:40;3.75;;;1.23;;
73816;SDS011;62146;53.232;-1.304;2023-02-02T08:11:08;4.18;;;1.20;;
73816;SDS011;62146;53.232;-1.304;2023-02-02T08:13:36;5.38;;;1.33;;
73816;SDS011;62146;53.232;-1.304;2023-02-02T08:16:04;5.00;;;1.17;;
73816;SDS011;62146;53.232;-1.304;2023-02-02T08:18:31;3.90;;;1.30;;
73816;SDS011;62146;53.232;-1.304;2023-02-02T08:20:59;4.22;;;1.50;;
73816;SDS011;62146;53.232;-1.304;2023-02-02T08:23:26;4.03;;;1.33;;
73816;SDS011;62146;53.232;-1.304;2023-02-02T08:25:54;3.25;;;1.13;;
73816;SDS011;62146;53.232;-1.304;2023-02-02T08:28:30;2.72;;;1.05;;
73816;SDS011;62146;53.232;-1.304;2023-02-02T08:31:02;6.67;;;1.20;;
73816;SDS011;62146;53.232;-1.304;2023-02-02T08:33:37;4.47;;;1.10;;
73816;SDS011;62146;53.232;-1.304;2023-02-02T08:36:07;4.93;;;1.25;;
73816;SDS011;62146;53.232;-1.304;2023-02-02T08:38:37;3.47;;;1.30;;
73816;SDS011;62146;53.232;-1.304;2023-02-02T08:41:04;3.97;;;1.20;;
73816;SDS011;62146;53.232;-1.304;2023-02-02T08:43:34;3.17;;;1.13;;
73816;SDS011;62146;53.232;-1.304;2023-02-02T08:46:02;6.45;;;1.27;;
73816;SDS011;62146;53.232;-1.304;2023-02-02T08:48:31;3.65;;;1.27;;
73816;SDS011;62146;53.232;-1.304;2023-02-02T08:50:59;6.90;;;1.20;;
73816;SDS011;62146;53.232;-1.304;2023-02-02T08:53:26;5.40;;;1.10;;
73816;SDS011;62146;53.232;-1.304;2023-02-02T08:55:56;5.17;;;1.20;;
73816;SDS011;62146;53.232;-1.304;2023-02-02T08:58:25;3.55;;;1.10;;
73816;SDS011;62146;53.232;-1.304;2023-02-02T09:00:52;5.70;;;1.33;;
73816;SDS011;62146;53.232;-1.304;2023-02-02T09:03:19;2.92;;;1.20;;
73816;SDS011;62146;53.232;-1.304;2023-02-02T09:05:46;4.82;;;1.30;;
73816;SDS011;62146;53.232;-1.304;2023-02-02T09:08:13;4.90;;;1.03;;
73816;SDS011;62146;53.232;-1.304;2023-02-02T09:10:39;4.28;;;1.10;;
73816;SDS011;62146;53.232;-1.304;2023-02-02T09:13:06;4.65;;;1.15;;
73816;SDS011;62146;53.232;-1.304;2023-02-02T09:15:32;4.32;;;1.23;;
73816;SDS011;62146;53.232;-1.304;2023-02-02T09:17:59;5.97;;;1.35;;
73816;SDS011;62146;53.232;-1.304;2023-02-02T09:20:25;4.70;;;1.20;;
73816;SDS011;62146;53.232;-1.304;2023-02-02T09:22:54;4.43;;;1.67;;
73816;SDS011;62146;53.232;-1.304;2023-02-02T09:25:22;5.13;;;1.30;;
73816;SDS011;62146;53.232;-1.304;2023-02-02T09:27:50;4.00;;;1.00;;
73816;SDS011;62146;53.232;-1.304;2023-02-02T09:30:17;5.97;;;1.00;;
73816;SDS011;62146;53.232;-1.304;2023-02-02T09:32:45;4.10;;;1.10;;
73816;SDS011;62146;53.232;-1.304;2023-02-02T09:35:14;4.15;;;1.27;;
73816;SDS011;62146;53.232;-1.304;2023-02-02T09:37:41;4.25;;;1.02;;
73816;SDS011;62146;53.232;-1.304;2023-02-02T09:40:12;4.03;;;1.30;;
73816;SDS011;62146;53.232;-1.304;2023-02-02T09:43:32;3.70;;;1.08;;
73816;SDS011;62146;53.232;-1.304;2023-02-02T09:46:28;4.70;;;1.23;;
73816;SDS011;62146;53.232;-1.304;2023-02-02T09:48:51;5.78;;;1.17;;
73816;SDS011;62146;53.232;-1.304;2023-02-02T09:51:39;2.50;;;1.00;;
73816;SDS011;62146;53.232;-1.304;2023-02-02T09:56:48;2.70;;;0.85;;
73816;SDS011;62146;53.232;-1.304;2023-02-02T09:59:32;3.20;;;0.97;;
73816;SDS011;62146;53.232;-1.304;2023-02-02T10:02:04;3.72;;;1.00;;
73816;SDS011;62146;53.232;-1.304;2023-02-02T10:04:39;5.00;;;1.15;;
73816;SDS011;62146;53.232;-1.304;2023-02-02T10:07:12;3.92;;;1.00;;
73816;SDS011;62146;53.232;-1.304;2023-02-02T10:09:47;4.80;;;1.33;;
73816;SDS011;62146;53.232;-1.304;2023-02-02T10:19:02;4.60;;;1.05;;
73816;SDS011;62146;53.232;-1.304;2023-02-02T10:21:37;4.85;;;0.82;;
73816;SDS011;62146;53.232;-1.304;2023-02-02T10:24:15;4.18;;;0.98;;
73816;SDS011;62146;53.232;-1.304;2023-02-02T10:26:45;3.87;;;0.80;;
73816;SDS011;62146;53.232;-1.304;2023-02-02T10:29:16;3.42;;;0.90;;
73816;SDS011;62146;53.232;-1.304;2023-02-02T10:34:48;2.42;;;0.73;;
73816;SDS011;62146;53.232;-1.304;2023-02-02T10:46:03;1.92;;;0.60;;
73816;SDS011;62146;53.232;-1.304;2023-02-02T10:48:32;1.88;;;0.60;;
73816;SDS011;62146;53.232;-1.304;2023-02-02T10:51:05;4.65;;;0.70;;
73816;SDS011;62146;53.232;-1.304;2023-02-02T10:53:41;2.17;;;0.53;;
73816;SDS011;62146;53.232;-1.304;2023-02-02T10:56:16;3.47;;;0.50;;
73816;SDS011;62146;53.232;-1.304;2023-02-02T10:59:03;2.33;;;0.77;;
73816;SDS011;62146;53.232;-1.304;2023-02-02T11:01:32;1.65;;;0.50;;
73816;SDS011;62146;53.232;-1.304;2023-02-02T11:03:59;2.00;;;0.68;;
73816;SDS011;62146;53.232;-1.304;2023-02-02T11:06:44;2.73;;;0.63;;
73816;SDS011;62146;53.232;-1.304;2023-02-02T11:09:18;2.63;;;0.70;;
73816;SDS011;62146;53.232;-1.304;2023-02-02T11:11:51;2.65;;;0.65;;
73816;SDS011;62146;53.232;-1.304;2023-02-02T11:14:39;1.90;;;0.57;;
73816;SDS011;62146;53.232;-1.304;2023-02-02T11:17:21;2.97;;;0.60;;
73816;SDS011;62146;53.232;-1.304;2023-02-02T11:19:49;2.07;;;0.50;;
73816;SDS011;62146;53.232;-1.304;2023-02-02T11:22:24;2.05;;;0.50;;
73816;SDS011;62146;53.232;-1.304;2023-02-02T11:24:51;1.80;;;0.52;;
73816;SDS011;62146;53.232;-1.304;2023-02-02T11:27:20;2.63;;;0.50;;
73816;SDS011;62146;53.232;-1.304;2023-02-02T11:29:51;1.63;;;0.60;;
73816;SDS011;62146;53.232;-1.304;2023-02-02T11:37:27;1.95;;;0.57;;
73816;SDS011;62146;53.232;-1.304;2023-02-02T11:39:55;2.13;;;0.40;;
73816;SDS011;62146;53.232;-1.304;2023-02-02T11:42:45;2.35;;;0.70;;
73816;SDS011;62146;53.232;-1.304;2023-02-02T11:45:32;1.33;;;0.47;;
73816;SDS011;62146;53.232;-1.304;2023-02-02T11:48:01;2.53;;;0.68;;
73816;SDS011;62146;53.232;-1.304;2023-02-02T11:50:31;3.05;;;0.50;;
73816;SDS011;62146;53.232;-1.304;2023-02-02T11:52:58;2.78;;;0.50;;
73816;SDS011;62146;53.232;-1.304;2023-02-02T11:55:28;2.90;;;0.68;;
73816;SDS011;62146;53.232;-1.304;2023-02-02T12:01:10;4.25;;;0.60;;
73816;SDS011;62146;53.232;-1.304;2023-02-02T12:03:48;2.60;;;0.70;;
73816;SDS011;62146;53.232;-1.304;2023-02-02T12:08:46;1.75;;;0.50;;
73816;SDS011;62146;53.232;-1.304;2023-02-02T12:19:36;3.20;;;0.50;;
73816;SDS011;62146;53.232;-1.304;2023-02-02T12:27:46;1.42;;;0.50;;
73816;SDS011;62146;53.232;-1.304;2023-02-02T12:30:39;1.77;;;0.50;;
73816;SDS011;62146;53.232;-1.304;2023-02-02T12:33:17;5.47;;;0.82;;
73816;SDS011;62146;53.232;-1.304;2023-02-02T12:36:08;1.85;;;0.60;;
73816;SDS011;62146;53.232;-1.304;2023-02-02T12:47:21;1.88;;;0.68;;
73816;SDS011;62146;53.232;-1.304;2023-02-02T13:09:01;3.88;;;1.20;;
73816;SDS011;62146;53.232;-1.304;2023-02-02T13:11:43;3.13;;;1.20;;
73816;SDS011;62146;53.232;-1.304;2023-02-02T13:14:18;2.95;;;1.27;;
73816;SDS011;62146;53.232;-1.304;2023-02-02T13:16:51;3.28;;;1.20;;
73816;SDS011;62146;53.232;-1.304;2023-02-02T13:19:25;4.17;;;1.40;;
73816;SDS011;62146;53.232;-1.304;2023-02-02T13:21:59;4.57;;;1.80;;
73816;SDS011;62146;53.232;-1.304;2023-02-02T13:24:30;3.20;;;1.20;;
73816;SDS011;62146;53.232;-1.304;2023-02-02T13:26:58;3.00;;;1.10;;
73816;SDS011;62146;53.232;-1.304;2023-02-02T13:32:24;4.17;;;0.90;;
73816;SDS011;62146;53.232;-1.304;2023-02-02T13:40:00;3.03;;;0.80;;
73816;SDS011;62146;53.232;-1.304;2023-02-02T13:45:48;6.10;;;1.00;;
73816;SDS011;62146;53.232;-1.304;2023-02-02T13:48:18;3.97;;;1.00;;
73816;SDS011;62146;53.232;-1.304;2023-02-02T13:56:59;3.47;;;0.95;;
73816;SDS011;62146;53.232;-1.304;2023-02-02T14:02:31;3.90;;;0.85;;
73816;SDS011;62146;53.232;-1.304;2023-02-02T14:05:05;4.95;;;1.20;;
73816;SDS011;62146;53.232;-1.304;2023-02-02T14:09:59;5.28;;;1.05;;
73816;SDS011;62146;53.232;-1.304;2023-02-02T14:12:29;2.50;;;0.83;;
73816;SDS011;62146;53.232;-1.304;2023-02-02T14:14:58;2.75;;;0.80;;
73816;SDS011;62146;53.232;-1.304;2023-02-02T14:19:55;1.90;;;0.80;;
73816;SDS011;62146;53.232;-1.304;2023-02-02T14:22:43;2.67;;;0.88;;
73816;SDS011;62146;53.232;-1.304;2023-02-02T14:27:56;2.63;;;0.95;;
73816;SDS011;62146;53.232;-1.304;2023-02-02T14:30:28;2.75;;;1.00;;
73816;SDS011;62146;53.232;-1.304;2023-02-02T14:38:17;3.73;;;1.23;;
73816;SDS011;62146;53.232;-1.304;2023-02-02T14:41:21;3.60;;;1.30;;
73816;SDS011;62146;53.232;-1.304;2023-02-02T14:44:10;3.58;;;1.40;;
73816;SDS011;62146;53.232;-1.304;2023-02-02T14:46:37;3.08;;;1.10;;
73816;SDS011;62146;53.232;-1.304;2023-02-02T14:51:33;3.20;;;1.20;;
73816;SDS011;62146;53.232;-1.304;2023-02-02T14:54:22;4.32;;;1.20;;
73816;SDS011;62146;53.232;-1.304;2023-02-02T14:56:56;3.10;;;1.20;;
73816;SDS011;62146;53.232;-1.304;2023-02-02T14:59:36;3.25;;;1.23;;
73816;SDS011;62146;53.232;-1.304;2023-02-02T15:02:07;4.00;;;1.70;;
73816;SDS011;62146;53.232;-1.304;2023-02-02T15:04:40;3.33;;;1.30;;
73816;SDS011;62146;53.232;-1.304;2023-02-02T15:09:50;3.88;;;1.10;;
73816;SDS011;62146;53.232;-1.304;2023-02-02T15:22:36;3.65;;;1.52;;
73816;SDS011;62146;53.232;-1.304;2023-02-02T15:30:48;4.27;;;1.40;;
73816;SDS011;62146;53.232;-1.304;2023-02-02T15:33:29;4.43;;;1.33;;
73816;SDS011;62146;53.232;-1.304;2023-02-02T15:36:08;4.35;;;1.40;;
73816;SDS011;62146;53.232;-1.304;2023-02-02T15:38:43;4.22;;;1.20;;
73816;SDS011;62146;53.232;-1.304;2023-02-02T15:41:18;5.53;;;1.13;;
73816;SDS011;62146;53.232;-1.304;2023-02-02T15:43:48;3.40;;;1.17;;
73816;SDS011;62146;53.232;-1.304;2023-02-02T15:46:16;5.05;;;1.10;;
73816;SDS011;62146;53.232;-1.304;2023-02-02T15:51:59;4.05;;;1.23;;
73816;SDS011;62146;53.232;-1.304;2023-02-02T15:54:29;3.40;;;1.00;;
73816;SDS011;62146;53.232;-1.304;2023-02-02T15:56:59;3.37;;;1.00;;
73816;SDS011;62146;53.232;-1.304;2023-02-02T15:59:28;2.83;;;0.80;;
73816;SDS011;62146;53.232;-1.304;2023-02-02T16:04:33;3.47;;;0.98;;
73816;SDS011;62146;53.232;-1.304;2023-02-02T16:07:06;3.25;;;0.70;;
73816;SDS011;62146;53.232;-1.304;2023-02-02T16:09:38;2.13;;;0.87;;
73816;SDS011;62146;53.232;-1.304;2023-02-02T16:12:12;1.98;;;0.70;;
73816;SDS011;62146;53.232;-1.304;2023-02-02T16:14:47;3.97;;;1.02;;
73816;SDS011;62146;53.232;-1.304;2023-02-02T16:17:22;4.38;;;0.80;;
73816;SDS011;62146;53.232;-1.304;2023-02-02T16:20:08;2.35;;;0.60;;
73816;SDS011;62146;53.232;-1.304;2023-02-02T16:22:39;3.17;;;0.53;;
73816;SDS011;62146;53.232;-1.304;2023-02-02T16:25:12;3.20;;;0.68;;
73816;SDS011;62146;53.232;-1.304;2023-02-02T16:27:43;3.25;;;0.82;;
73816;SDS011;62146;53.232;-1.304;2023-02-02T16:30:19;3.40;;;0.95;;
73816;SDS011;62146;53.232;-1.304;2023-02-02T16:32:51;3.13;;;0.75;;
73816;SDS011;62146;53.232;-1.304;2023-02-02T16:38:19;2.33;;;0.63;;
73816;SDS011;62146;53.232;-1.304;2023-02-02T16:40:48;2.63;;;0.80;;
73816;SDS011;62146;53.232;-1.304;2023-02-02T16:43:25;2.30;;;0.60;;
73816;SDS011;62146;53.232;-1.304;2023-02-02T16:45:55;2.83;;;0.70;;
73816;SDS011;62146;53.232;-1.304;2023-02-02T16:48:40;3.13;;;0.67;;
73816;SDS011;62146;53.232;-1.304;2023-02-02T16:53:43;1.77;;;0.52;;
73816;SDS011;62146;53.232;-1.304;2023-02-02T17:01:55;1.83;;;0.50;;
73816;SDS011;62146;53.232;-1.304;2023-02-02T17:04:26;2.35;;;0.60;;
73816;SDS011;62146;53.232;-1.304;2023-02-02T17:06:55;1.30;;;0.43;;
73816;SDS011;62146;53.232;-1.304;2023-02-02T17:15:23;2.00;;;0.50;;
73816;SDS011;62146;53.232;-1.304;2023-02-02T17:17:49;1.92;;;0.70;;
73816;SDS011;62146;53.232;-1.304;2023-02-02T17:20:17;1.67;;;0.68;;
73816;SDS011;62146;53.232;-1.304;2023-02-02T17:23:03;3.35;;;0.82;;
73816;SDS011;62146;53.232;-1.304;2023-02-02T17:25:36;3.05;;;0.52;;
73816;SDS011;62146;53.232;-1.304;2023-02-02T17:28:11;3.03;;;0.50;;
73816;SDS011;62146;53.232;-1.304;2023-02-02T17:30:40;3.47;;;0.70;;
73816;SDS011;62146;53.232;-1.304;2023-02-02T17:33:14;3.40;;;0.50;;
73816;SDS011;62146;53.232;-1.304;2023-02-02T17:35:43;2.10;;;0.55;;
73816;SDS011;62146;53.232;-1.304;2023-02-02T17:38:20;2.42;;;0.68;;
73816;SDS011;62146;53.232;-1.304;2023-02-02T17:40:48;2.50;;;0.67;;
73816;SDS011;62146;53.232;-1.304;2023-02-02T17:43:15;3.25;;;0.55;;
73816;SDS011;62146;53.232;-1.304;2023-02-02T17:45:42;2.50;;;0.57;;
73816;SDS011;62146;53.232;-1.304;2023-02-02T17:48:09;4.40;;;0.98;;
73816;SDS011;62146;53.232;-1.304;2023-02-02T17:50:38;3.50;;;0.60;;
73816;SDS011;62146;53.232;-1.304;2023-02-02T17:53:09;3.67;;;0.60;;
73816;SDS011;62146;53.232;-1.304;2023-02-02T17:55:37;2.65;;;0.60;;